createdAt,value
2022-10-05T00:00:55.452Z,16.92
2022-10-05T00:03:00.212Z,16.94
2022-10-05T00:05:02.004Z,16.95
2022-10-05T00:07:09.690Z,16.96
2022-10-05T00:09:16.123Z,17.03
2022-10-05T00:11:17.771Z,17.03
2022-10-05T00:13:21.465Z,17.03
2022-10-05T00:15:23.286Z,17.05
2022-10-05T00:17:27.218Z,17.09
2022-10-05T00:19:32.262Z,17.07
2022-10-05T00:21:33.880Z,17.03
2022-10-05T00:23:36.684Z,17.03
2022-10-05T00:25:39.154Z,17.03
2022-10-05T00:27:41.395Z,17.02
2022-10-05T00:29:43.236Z,17.02
2022-10-05T00:31:44.878Z,17.01
2022-10-05T00:33:47.223Z,17.03
2022-10-05T00:35:49.408Z,17.03
2022-10-05T00:37:53.353Z,17.04
2022-10-05T00:39:56.636Z,17.02
2022-10-05T00:42:24.936Z,17.04
2022-10-05T00:44:37.267Z,17.02
2022-10-05T00:46:53.663Z,16.98
2022-10-05T00:49:03.633Z,16.96
2022-10-05T00:51:20.789Z,16.96
2022-10-05T00:53:34.260Z,16.98
2022-10-05T00:55:47.574Z,17.00
2022-10-05T00:58:01.483Z,16.95
2022-10-05T01:00:07.871Z,16.90
2022-10-05T01:02:15.257Z,16.90
2022-10-05T01:04:21.848Z,16.86
2022-10-05T01:06:35.863Z,16.83
2022-10-05T01:08:47.741Z,16.78
2022-10-05T01:10:59.330Z,16.73
2022-10-05T01:13:09.515Z,16.67
2022-10-05T01:15:16.077Z,16.63
2022-10-05T01:17:25.220Z,16.66
2022-10-05T01:26:38.285Z,16.59
2022-10-05T01:34:44.905Z,16.58
2022-10-05T01:43:11.789Z,16.55
2022-10-05T01:45:23.317Z,16.57
2022-10-05T01:47:33.269Z,16.58
2022-10-05T01:49:37.579Z,16.57
2022-10-05T01:51:47.952Z,16.61
2022-10-05T01:54:03.258Z,16.65
2022-10-05T01:56:14.981Z,16.64
2022-10-05T01:58:22.878Z,16.62
2022-10-05T02:00:24.716Z,16.58
2022-10-05T02:02:29.133Z,16.57
2022-10-05T02:05:00.804Z,16.54
2022-10-05T02:06:59.738Z,16.50
2022-10-05T02:09:05.917Z,16.51
2022-10-05T02:11:10.609Z,16.53
2022-10-05T02:13:18.401Z,16.61
2022-10-05T02:15:25.582Z,16.62
2022-10-05T02:17:34.111Z,16.65
2022-10-05T02:19:39.092Z,16.57
2022-10-05T02:21:43.683Z,16.51
2022-10-05T02:23:50.799Z,16.54
2022-10-05T02:25:54.279Z,16.56
2022-10-05T02:28:01.326Z,16.55
2022-10-05T02:30:06.421Z,16.52
2022-10-05T02:32:12.091Z,16.52
2022-10-05T02:34:20.952Z,16.46
2022-10-05T02:36:28.878Z,16.39
2022-10-05T02:38:40.617Z,16.35
2022-10-05T02:40:53.643Z,16.34
2022-10-05T02:43:04.392Z,16.24
2022-10-05T02:45:17.420Z,16.23
2022-10-05T02:47:27.445Z,16.22
2022-10-05T02:49:37.752Z,16.13
2022-10-05T02:51:50.279Z,16.12
2022-10-05T02:54:05.827Z,16.14
2022-10-05T02:56:20.314Z,16.18
2022-10-05T02:58:24.921Z,16.14
2022-10-05T03:00:32.215Z,16.09
2022-10-05T03:02:43.262Z,16.05
2022-10-05T03:04:54.272Z,16.07
2022-10-05T03:07:03.868Z,16.11
2022-10-05T03:09:07.484Z,16.11
2022-10-05T03:11:22.135Z,16.13
2022-10-05T03:13:31.037Z,16.11
2022-10-05T03:16:02.406Z,16.13
2022-10-05T03:18:15.631Z,16.11
2022-10-05T03:20:27.980Z,16.13
2022-10-05T03:22:44.818Z,16.13
2022-10-05T03:25:05.097Z,16.17
2022-10-05T03:27:22.368Z,16.13
2022-10-05T03:29:34.981Z,16.14
2022-10-05T03:31:46.312Z,16.18
2022-10-05T03:33:53.976Z,16.17
2022-10-05T03:36:03.888Z,16.21
2022-10-05T03:38:12.969Z,16.25
2022-10-05T03:40:24.735Z,16.21
2022-10-05T03:42:37.896Z,16.24
2022-10-05T03:44:47.746Z,16.24
2022-10-05T03:47:05.563Z,16.27
2022-10-05T03:49:15.066Z,16.29
2022-10-05T03:51:23.835Z,16.33
2022-10-05T03:53:30.147Z,16.35
2022-10-05T03:55:37.144Z,16.41
2022-10-05T03:57:42.521Z,16.47
2022-10-05T03:59:54.447Z,16.51
2022-10-05T04:01:58.919Z,16.55
2022-10-05T04:04:04.215Z,16.57
2022-10-05T04:06:13.433Z,16.50
2022-10-05T04:08:23.050Z,16.49
2022-10-05T04:10:27.658Z,16.40
2022-10-05T04:12:35.449Z,16.27
2022-10-05T04:14:43.500Z,16.33
2022-10-05T04:16:50.102Z,16.25
2022-10-05T04:18:59.231Z,16.23
2022-10-05T04:21:06.951Z,16.21
2022-10-05T04:23:18.362Z,16.23
2022-10-05T04:25:24.833Z,16.22
2022-10-05T04:27:31.943Z,16.21
2022-10-05T04:29:37.989Z,16.21
2022-10-05T04:31:59.312Z,16.23
2022-10-05T04:34:07.843Z,16.19
2022-10-05T04:36:21.639Z,16.21
2022-10-05T04:38:32.090Z,16.19
2022-10-05T04:40:44.217Z,16.18
2022-10-05T04:42:54.587Z,16.17
2022-10-05T04:45:14.983Z,16.21
2022-10-05T04:47:38.614Z,16.18
2022-10-05T04:50:00.688Z,16.19
2022-10-05T04:52:11.335Z,16.20
2022-10-05T04:54:24.302Z,16.22
2022-10-05T04:56:34.202Z,16.27
2022-10-05T04:58:47.602Z,16.25
2022-10-05T05:00:59.709Z,16.22
2022-10-05T05:03:34.523Z,16.24
2022-10-05T05:06:12.173Z,16.19
2022-10-05T05:08:27.053Z,16.18
2022-10-05T05:10:55.288Z,16.14
2022-10-05T05:13:07.769Z,16.10
2022-10-05T05:15:21.866Z,16.09
2022-10-05T05:17:36.203Z,16.13
2022-10-05T05:19:49.393Z,16.11
2022-10-05T05:22:00.241Z,16.21
2022-10-05T05:24:09.094Z,16.20
2022-10-05T05:26:18.805Z,16.18
2022-10-05T05:28:29.586Z,16.16
2022-10-05T05:30:40.700Z,16.16
2022-10-05T05:32:54.138Z,16.13
2022-10-05T05:35:13.625Z,16.16
2022-10-05T05:37:23.760Z,16.11
2022-10-05T05:39:29.163Z,16.10
2022-10-05T05:41:38.355Z,16.11
2022-10-05T05:43:52.092Z,16.16
2022-10-05T05:45:59.562Z,16.16
2022-10-05T05:48:05.435Z,16.13
2022-10-05T05:50:23.670Z,16.14
2022-10-05T05:52:30.336Z,16.13
2022-10-05T05:54:38.611Z,16.16
2022-10-05T05:56:45.080Z,16.19
2022-10-05T05:58:50.841Z,16.19
2022-10-05T06:00:57.347Z,16.22
2022-10-05T06:03:03.888Z,16.23
2022-10-05T06:05:28.683Z,16.23
2022-10-05T06:07:31.236Z,16.26
2022-10-05T06:09:39.242Z,16.22
2022-10-05T06:11:45.558Z,16.24
2022-10-05T06:13:47.581Z,16.25
2022-10-05T06:15:55.974Z,16.17
2022-10-05T06:18:01.439Z,16.18
2022-10-05T06:20:09.700Z,16.21
2022-10-05T06:22:28.614Z,16.23
2022-10-05T06:24:35.492Z,16.24
2022-10-05T06:27:03.999Z,16.24
2022-10-05T06:29:11.635Z,16.28
2022-10-05T06:31:24.072Z,16.31
2022-10-05T06:33:48.108Z,16.35
2022-10-05T06:36:17.962Z,16.37
2022-10-05T06:38:37.762Z,16.38
2022-10-05T06:40:49.363Z,16.43
2022-10-05T06:43:13.961Z,16.41
2022-10-05T06:45:25.916Z,16.43
2022-10-05T06:47:35.795Z,16.46
2022-10-05T06:49:44.937Z,16.49
2022-10-05T06:51:55.969Z,16.53
2022-10-05T06:54:08.911Z,16.53
2022-10-05T06:56:17.555Z,16.53
2022-10-05T06:58:40.978Z,16.56
2022-10-05T07:00:50.405Z,16.59
2022-10-05T07:02:57.697Z,16.61
2022-10-05T07:05:28.676Z,16.65
2022-10-05T07:07:38.457Z,16.63
2022-10-05T07:09:56.294Z,16.74
2022-10-05T07:12:09.726Z,16.86
2022-10-05T07:14:24.110Z,16.99
2022-10-05T07:16:36.419Z,17.03
2022-10-05T07:18:49.031Z,17.11
2022-10-05T07:20:59.106Z,17.23
2022-10-05T07:23:20.133Z,17.37
2022-10-05T07:25:28.031Z,17.39
2022-10-05T07:27:33.929Z,17.43
2022-10-05T07:29:47.840Z,17.64
2022-10-05T07:31:58.415Z,17.74
2022-10-05T07:34:14.152Z,17.80
2022-10-05T07:36:21.015Z,17.78
2022-10-05T07:38:29.570Z,17.84
2022-10-05T07:40:48.093Z,17.85
2022-10-05T07:42:59.604Z,17.77
2022-10-05T07:45:13.351Z,17.70
2022-10-05T07:47:23.790Z,17.77
2022-10-05T07:49:38.532Z,17.73
2022-10-05T07:51:44.989Z,17.66
2022-10-05T07:53:53.005Z,17.69
2022-10-05T07:56:00.336Z,17.61
2022-10-05T07:58:11.429Z,17.64
2022-10-05T08:00:19.146Z,17.66
2022-10-05T08:02:26.648Z,17.78
2022-10-05T08:04:37.027Z,17.78
2022-10-05T08:06:50.629Z,17.85
2022-10-05T08:09:02.045Z,17.98
2022-10-05T08:11:14.178Z,18.06
2022-10-05T08:13:23.865Z,18.26
2022-10-05T08:15:30.091Z,18.47
2022-10-05T08:17:50.273Z,18.61
2022-10-05T08:20:02.412Z,18.61
2022-10-05T08:22:08.600Z,18.68
2022-10-05T08:24:17.971Z,18.69
2022-10-05T08:26:29.148Z,18.85
2022-10-05T08:28:35.677Z,18.98
2022-10-05T08:30:51.664Z,19.07
2022-10-05T08:33:00.427Z,19.23
2022-10-05T08:35:15.029Z,19.37
2022-10-05T08:37:20.830Z,19.38
2022-10-05T08:39:24.748Z,19.44
2022-10-05T08:41:55.997Z,19.53
2022-10-05T08:44:45.359Z,19.51
2022-10-05T08:47:19.301Z,19.29
2022-10-05T08:49:58.391Z,19.34
2022-10-05T08:52:20.713Z,19.33
2022-10-05T08:54:48.110Z,19.38
2022-10-05T08:57:02.137Z,19.44
2022-10-05T08:59:20.469Z,19.52
2022-10-05T09:01:30.423Z,19.57
2022-10-05T09:04:07.343Z,19.48
2022-10-05T09:06:25.754Z,19.60
2022-10-05T09:08:47.828Z,19.38
2022-10-05T09:11:11.246Z,19.56
2022-10-05T09:13:38.479Z,19.82
2022-10-05T09:16:07.388Z,19.79
2022-10-05T09:18:42.235Z,19.80
2022-10-05T09:20:51.843Z,19.74
2022-10-05T09:23:11.078Z,19.76
2022-10-05T09:25:23.186Z,19.76
2022-10-05T09:27:35.958Z,19.86
2022-10-05T09:30:10.085Z,19.90
2022-10-05T09:32:37.237Z,19.93
2022-10-05T09:35:16.870Z,19.97
2022-10-05T09:38:03.778Z,19.97
2022-10-05T09:40:47.247Z,20.03
2022-10-05T09:43:23.792Z,20.11
2022-10-05T09:45:59.489Z,20.16
2022-10-05T09:48:28.332Z,20.31
2022-10-05T09:51:08.369Z,20.29
2022-10-05T09:53:30.930Z,20.31
2022-10-05T09:56:20.068Z,20.40
2022-10-05T09:58:57.484Z,20.34
2022-10-05T10:01:33.179Z,20.42
2022-10-05T10:04:14.751Z,20.67
2022-10-05T10:07:00.531Z,20.77
2022-10-05T10:09:21.251Z,20.78
2022-10-05T10:11:37.484Z,20.90
2022-10-05T10:14:00.554Z,20.91
2022-10-05T10:16:11.273Z,20.94
2022-10-05T10:18:40.514Z,20.99
2022-10-05T10:20:58.444Z,21.08
2022-10-05T10:23:28.405Z,21.25
2022-10-05T10:26:11.839Z,21.35
2022-10-05T10:28:44.546Z,21.35
2022-10-05T10:31:08.615Z,21.39
2022-10-05T10:33:47.986Z,21.50
2022-10-05T10:35:55.432Z,21.60
2022-10-05T10:38:32.516Z,21.75
2022-10-05T10:40:42.718Z,21.79
2022-10-05T10:42:59.983Z,21.93
2022-10-05T10:45:19.220Z,22.02
2022-10-05T10:47:46.894Z,22.15
2022-10-05T10:50:11.378Z,22.27
2022-10-05T10:52:32.447Z,22.32
2022-10-05T10:55:25.081Z,22.47
2022-10-05T10:57:41.131Z,22.75
2022-10-05T11:00:21.854Z,23.22
2022-10-05T11:03:02.059Z,23.77
2022-10-05T11:05:18.989Z,24.02
2022-10-05T11:07:53.153Z,24.42
2022-10-05T11:10:19.664Z,24.65
2022-10-05T11:13:02.324Z,24.86
2022-10-05T11:15:44.000Z,24.83
2022-10-05T11:18:05.025Z,24.85
2022-10-05T11:20:36.751Z,24.71
2022-10-05T11:22:54.434Z,24.64
2022-10-05T11:25:11.852Z,24.47
2022-10-05T11:27:46.970Z,24.40
2022-10-05T11:30:15.843Z,24.27
2022-10-05T11:32:34.824Z,24.16
2022-10-05T11:35:01.480Z,24.13
2022-10-05T11:37:23.083Z,24.09
2022-10-05T11:39:42.863Z,24.17
2022-10-05T11:42:07.883Z,24.21
2022-10-05T11:44:38.732Z,24.37
2022-10-05T11:46:43.530Z,24.47
2022-10-05T11:49:09.902Z,24.72
2022-10-05T11:51:42.492Z,24.94
2022-10-05T11:53:53.780Z,25.03
2022-10-05T11:56:06.641Z,25.00
2022-10-05T11:58:16.142Z,25.34
2022-10-05T12:00:19.756Z,25.67
2022-10-05T12:02:53.677Z,25.83
2022-10-05T12:05:03.238Z,26.05
2022-10-05T12:07:17.012Z,26.20
2022-10-05T12:09:41.847Z,26.27
2022-10-05T12:11:57.845Z,26.15
2022-10-05T12:14:06.604Z,26.00
2022-10-05T12:16:15.987Z,25.94
2022-10-05T12:18:42.819Z,25.76
2022-10-05T12:20:49.025Z,25.62
2022-10-05T12:22:58.999Z,25.55
2022-10-05T12:25:06.791Z,25.41
2022-10-05T12:27:15.301Z,25.39
2022-10-05T12:29:24.892Z,25.21
2022-10-05T12:31:39.730Z,25.16
2022-10-05T12:33:50.379Z,25.07
2022-10-05T12:35:55.762Z,25.04
2022-10-05T12:38:05.375Z,24.91
2022-10-05T12:40:19.733Z,24.80
2022-10-05T12:42:29.623Z,24.83
2022-10-05T12:44:57.054Z,24.56
2022-10-05T12:47:09.602Z,24.52
2022-10-05T12:49:24.040Z,24.57
2022-10-05T12:51:35.596Z,24.51
2022-10-05T12:53:48.802Z,24.54
2022-10-05T12:56:02.412Z,24.48
2022-10-05T12:58:19.977Z,24.31
2022-10-05T13:00:23.258Z,24.38
2022-10-05T13:02:35.550Z,24.40
2022-10-05T13:04:46.215Z,24.39
2022-10-05T13:07:05.189Z,24.40
2022-10-05T13:09:13.402Z,24.36
2022-10-05T13:11:20.901Z,24.32
2022-10-05T13:13:34.491Z,24.29
2022-10-05T13:15:47.069Z,24.28
2022-10-05T13:18:01.121Z,24.24
2022-10-05T13:20:13.884Z,24.19
2022-10-05T13:22:30.626Z,24.21
2022-10-05T13:24:43.162Z,24.30
2022-10-05T13:26:49.635Z,24.34
2022-10-05T13:28:58.715Z,24.30
2022-10-05T13:31:06.316Z,24.26
2022-10-05T13:33:17.310Z,24.35
2022-10-05T13:35:29.544Z,24.32
2022-10-05T13:37:43.789Z,24.31
2022-10-05T13:39:58.301Z,24.37
2022-10-05T13:42:08.839Z,24.31
2022-10-05T13:44:22.740Z,24.29
2022-10-05T13:46:35.591Z,24.29
2022-10-05T13:48:50.374Z,24.28
2022-10-05T13:51:06.139Z,24.37
2022-10-05T13:53:19.379Z,24.47
2022-10-05T13:55:43.005Z,24.44
2022-10-05T13:57:56.385Z,24.49
2022-10-05T14:00:00.797Z,24.47
2022-10-05T14:02:08.680Z,24.54
2022-10-05T14:04:16.702Z,24.46
2022-10-05T14:06:27.528Z,24.49
2022-10-05T14:08:32.320Z,24.46
2022-10-05T14:10:38.343Z,24.61
2022-10-05T14:12:45.354Z,24.60
2022-10-05T14:14:50.235Z,24.64
2022-10-05T14:16:54.423Z,24.60
2022-10-05T14:19:11.367Z,24.64
2022-10-05T14:21:19.546Z,24.71
2022-10-05T14:23:26.820Z,24.72
2022-10-05T14:25:29.897Z,24.74
2022-10-05T14:27:35.980Z,24.75
2022-10-05T14:29:38.661Z,24.71
2022-10-05T14:31:49.285Z,24.71
2022-10-05T14:33:50.878Z,24.71
2022-10-05T14:35:55.404Z,24.68
2022-10-05T14:37:59.712Z,24.71
2022-10-05T14:40:25.437Z,24.68
2022-10-05T14:42:29.147Z,24.67
2022-10-05T14:46:52.162Z,24.72
2022-10-05T14:49:12.037Z,24.79
2022-10-05T14:51:25.465Z,24.76
2022-10-05T14:53:38.544Z,24.76
2022-10-05T14:55:50.623Z,24.78
2022-10-05T14:58:04.657Z,24.75
2022-10-05T15:00:12.524Z,24.72
2022-10-05T15:02:31.837Z,24.75
2022-10-05T15:04:41.085Z,24.73
2022-10-05T15:06:48.175Z,24.76
2022-10-05T15:09:18.172Z,24.74
2022-10-05T15:11:31.000Z,24.75
2022-10-05T15:13:37.347Z,24.66
2022-10-05T15:15:47.405Z,24.63
2022-10-05T15:17:55.116Z,24.49
2022-10-05T15:20:02.453Z,24.56
2022-10-05T15:22:23.472Z,24.65
2022-10-05T15:24:31.526Z,24.62
2022-10-05T15:26:48.662Z,24.68
2022-10-05T15:28:56.278Z,24.66
2022-10-05T15:31:03.677Z,24.62
2022-10-05T15:33:14.982Z,24.60
2022-10-05T15:35:42.509Z,24.61
2022-10-05T15:37:50.153Z,24.60
2022-10-05T15:39:54.624Z,24.65
2022-10-05T15:42:00.817Z,24.60
2022-10-05T15:44:15.361Z,24.63
2022-10-05T15:46:24.103Z,24.69
2022-10-05T15:48:33.354Z,24.62
2022-10-05T15:50:42.801Z,24.63
2022-10-05T15:52:50.202Z,24.62
2022-10-05T15:55:25.498Z,24.67
2022-10-05T15:57:38.805Z,24.60
2022-10-05T15:59:51.131Z,24.54
2022-10-05T16:01:58.328Z,24.46
2022-10-05T16:04:11.028Z,24.36
2022-10-05T16:06:23.498Z,24.36
2022-10-05T16:08:46.501Z,24.34
2022-10-05T16:10:48.854Z,24.34
2022-10-05T16:13:13.904Z,24.25
2022-10-05T16:15:25.406Z,24.30
2022-10-05T16:17:44.199Z,24.28
2022-10-05T16:19:56.487Z,24.29
2022-10-05T16:22:05.754Z,24.26
2022-10-05T16:24:19.779Z,24.25
2022-10-05T16:26:32.630Z,24.18
2022-10-05T16:28:42.772Z,24.19
2022-10-05T16:30:56.454Z,24.18
2022-10-05T16:33:08.668Z,24.17
2022-10-05T16:35:24.178Z,24.15
2022-10-05T16:37:36.722Z,24.12
2022-10-05T16:39:49.572Z,24.10
2022-10-05T16:41:59.884Z,24.09
2022-10-05T16:44:10.796Z,24.14
2022-10-05T16:46:22.513Z,24.14
2022-10-05T16:48:28.805Z,24.12
2022-10-05T16:50:38.268Z,24.09
2022-10-05T16:52:44.726Z,24.09
2022-10-05T16:54:52.213Z,24.05
2022-10-05T16:56:57.147Z,24.05
2022-10-05T16:59:14.658Z,23.99
2022-10-05T17:01:27.923Z,23.93
2022-10-05T17:03:50.651Z,23.90
2022-10-05T17:06:10.375Z,23.86
2022-10-05T17:08:43.680Z,23.85
2022-10-05T17:10:55.749Z,23.79
2022-10-05T17:13:04.888Z,23.78
2022-10-05T17:15:23.574Z,23.75
2022-10-05T17:17:40.869Z,23.71
2022-10-05T17:19:58.790Z,23.71
2022-10-05T17:22:07.285Z,23.68
2022-10-05T17:24:27.769Z,23.70
2022-10-05T17:26:43.872Z,23.67
2022-10-05T17:28:59.964Z,23.69
2022-10-05T17:31:15.121Z,23.67
2022-10-05T17:33:23.412Z,23.64
2022-10-05T17:35:50.686Z,23.65
2022-10-05T17:38:16.906Z,23.62
2022-10-05T17:40:35.323Z,23.58
2022-10-05T17:42:48.303Z,23.58
2022-10-05T17:44:54.077Z,23.59
2022-10-05T17:46:58.047Z,23.56
2022-10-05T17:49:18.574Z,23.53
2022-10-05T17:51:53.493Z,23.53
2022-10-05T17:53:56.657Z,23.49
2022-10-05T17:56:04.662Z,23.48
2022-10-05T17:58:43.895Z,23.48
2022-10-05T18:01:04.977Z,23.39
2022-10-05T18:03:48.236Z,23.37
2022-10-05T18:06:29.325Z,23.32
2022-10-05T18:08:38.050Z,23.17
2022-10-05T18:11:06.699Z,23.09
2022-10-05T18:13:33.586Z,23.09
2022-10-05T18:15:45.417Z,22.96
2022-10-05T18:17:50.336Z,22.92
2022-10-05T18:20:13.566Z,22.95
2022-10-05T18:22:28.658Z,22.92
2022-10-05T18:24:59.332Z,22.80
2022-10-05T18:27:16.641Z,22.85
2022-10-05T18:29:31.074Z,22.73
2022-10-05T18:31:41.031Z,22.74
2022-10-05T18:33:55.010Z,22.72
2022-10-05T18:36:05.675Z,22.78
2022-10-05T18:38:19.393Z,22.82
2022-10-05T18:40:28.736Z,22.74
2022-10-05T18:42:39.477Z,22.78
2022-10-05T18:44:46.150Z,22.87
2022-10-05T18:46:56.740Z,22.87
2022-10-05T18:49:09.240Z,22.77
2022-10-05T18:51:21.986Z,22.87
2022-10-05T18:53:34.947Z,22.88
2022-10-05T18:55:43.550Z,22.89
2022-10-05T18:58:13.555Z,22.91
2022-10-05T19:00:18.748Z,22.91
2022-10-05T19:02:26.146Z,22.89
2022-10-05T19:04:37.818Z,22.90
2022-10-05T19:06:51.152Z,22.90
2022-10-05T19:09:03.985Z,22.88
2022-10-05T19:11:17.428Z,22.85
2022-10-05T19:13:34.211Z,22.79
2022-10-05T19:15:45.058Z,22.72
2022-10-05T19:18:02.062Z,22.72
2022-10-05T19:20:16.971Z,22.72
2022-10-05T19:22:32.780Z,22.68
2022-10-05T19:24:55.745Z,22.68
2022-10-05T19:27:06.648Z,22.70
2022-10-05T19:29:23.618Z,22.73
2022-10-05T19:31:33.631Z,22.70
2022-10-05T19:33:55.829Z,22.62
2022-10-05T19:36:11.995Z,22.60
2022-10-05T19:38:24.167Z,22.66
2022-10-05T19:40:33.281Z,22.63
2022-10-05T19:42:51.659Z,22.68
2022-10-05T19:45:08.353Z,22.68
2022-10-05T19:47:18.834Z,22.67
2022-10-05T19:49:57.269Z,22.69
2022-10-05T19:51:59.274Z,22.65
2022-10-05T19:54:02.976Z,22.65
2022-10-05T19:56:17.568Z,22.62
2022-10-05T19:58:21.570Z,22.58
2022-10-05T20:00:26.948Z,22.59
2022-10-05T20:02:28.760Z,22.64
2022-10-05T20:04:35.534Z,22.60
2022-10-05T20:06:37.270Z,22.65
2022-10-05T20:08:40.386Z,22.58
2022-10-05T20:10:41.995Z,22.57
2022-10-05T20:12:50.059Z,22.60
2022-10-05T20:15:08.663Z,22.63
2022-10-05T20:17:27.509Z,22.59
2022-10-05T20:19:36.668Z,22.57
2022-10-05T20:21:44.592Z,22.57
2022-10-05T20:23:46.279Z,22.52
2022-10-05T20:25:48.296Z,22.49
2022-10-05T20:27:51.443Z,22.45
2022-10-05T20:29:52.994Z,22.38
2022-10-05T20:31:55.271Z,22.42
2022-10-05T20:34:02.163Z,22.36
2022-10-05T20:36:04.436Z,22.35
2022-10-05T20:38:06.066Z,22.30
2022-10-05T20:40:08.806Z,22.26
2022-10-05T20:42:11.519Z,22.27
2022-10-05T20:44:13.158Z,22.27
2022-10-05T20:46:14.864Z,22.25
2022-10-05T20:48:16.485Z,22.17
2022-10-05T20:50:19.389Z,22.14
2022-10-05T20:52:21.930Z,22.18
2022-10-05T20:54:23.914Z,22.12
2022-10-05T20:56:26.012Z,22.13
2022-10-05T20:58:27.854Z,22.19
2022-10-05T21:00:33.271Z,22.23
2022-10-05T21:02:35.678Z,22.15
2022-10-05T21:04:41.218Z,22.06
2022-10-05T21:06:45.339Z,21.98
2022-10-05T21:08:47.226Z,22.00
2022-10-05T21:10:48.726Z,21.97
2022-10-05T21:12:50.442Z,21.96
2022-10-05T21:14:55.062Z,21.90
2022-10-05T21:16:56.675Z,21.91
2022-10-05T21:19:00.068Z,21.91
2022-10-05T21:21:02.463Z,21.96
2022-10-05T21:23:05.538Z,21.93
2022-10-05T21:25:07.762Z,21.86
2022-10-05T21:27:09.550Z,21.81
2022-10-05T21:29:12.926Z,21.82
2022-10-05T21:31:15.046Z,21.84
2022-10-05T21:33:16.624Z,21.83
2022-10-05T21:35:18.330Z,21.83
2022-10-05T21:37:19.859Z,21.85
2022-10-05T21:39:22.784Z,21.85
2022-10-05T21:41:26.331Z,21.85
2022-10-05T21:43:28.292Z,21.63
2022-10-05T21:45:30.789Z,21.55
2022-10-05T21:47:32.696Z,21.58
2022-10-05T21:49:35.913Z,21.45
2022-10-05T21:51:38.743Z,21.41
2022-10-05T21:53:45.583Z,21.40
2022-10-05T21:55:50.470Z,21.37
2022-10-05T21:57:52.223Z,21.44
2022-10-05T21:59:54.000Z,21.42
2022-10-05T22:01:55.616Z,21.46
2022-10-05T22:03:57.191Z,21.51
2022-10-05T22:05:59.125Z,21.52
2022-10-05T22:08:00.766Z,21.52
2022-10-05T22:10:02.449Z,21.53
2022-10-05T22:12:05.470Z,21.56
2022-10-05T22:14:06.996Z,21.57
2022-10-05T22:16:09.499Z,21.57
2022-10-05T22:18:17.733Z,21.56
2022-10-05T22:20:19.949Z,21.56
2022-10-05T22:22:21.925Z,21.57
2022-10-05T22:24:23.448Z,21.56
2022-10-05T22:26:25.158Z,21.54
2022-10-05T22:28:28.582Z,21.50
2022-10-05T22:30:30.682Z,21.48
2022-10-05T22:32:32.253Z,21.44
2022-10-05T22:34:33.894Z,21.43
2022-10-05T22:36:36.052Z,21.41
2022-10-05T22:38:40.979Z,21.40
2022-10-05T22:40:42.509Z,21.39
2022-10-05T22:42:44.014Z,21.40
2022-10-05T22:44:46.863Z,21.39
2022-10-05T22:46:48.388Z,21.36
2022-10-05T22:48:49.828Z,21.35
2022-10-05T22:50:51.547Z,21.33
2022-10-05T22:52:53.061Z,21.29
2022-10-05T22:54:54.635Z,21.25
2022-10-05T22:56:56.205Z,21.22
2022-10-05T22:58:57.961Z,21.20
2022-10-05T23:01:06.617Z,21.18
2022-10-05T23:03:08.363Z,21.15
2022-10-05T23:05:11.735Z,21.14
2022-10-05T23:07:13.274Z,21.17
2022-10-05T23:09:14.924Z,21.22
2022-10-05T23:11:18.844Z,21.18
2022-10-05T23:13:20.348Z,21.14
2022-10-05T23:15:21.963Z,21.12
2022-10-05T23:17:24.965Z,21.14
2022-10-05T23:19:26.628Z,21.07
2022-10-05T23:21:29.685Z,21.03
2022-10-05T23:23:31.174Z,21.01
2022-10-05T23:25:35.126Z,21.03
2022-10-05T23:27:37.475Z,21.01
2022-10-05T23:29:39.062Z,21.01
2022-10-05T23:31:40.883Z,20.95
2022-10-05T23:33:43.871Z,20.96
2022-10-05T23:35:45.346Z,20.89
2022-10-05T23:37:50.035Z,20.86
2022-10-05T23:39:51.647Z,20.89
2022-10-05T23:41:53.133Z,20.90
2022-10-05T23:43:54.664Z,20.89
2022-10-05T23:45:56.414Z,20.87
2022-10-05T23:47:58.153Z,20.88
2022-10-05T23:50:01.409Z,20.83
2022-10-05T23:52:02.952Z,20.80
2022-10-05T23:54:04.550Z,20.83
2022-10-05T23:56:06.664Z,20.84
2022-10-05T23:58:08.588Z,20.84
